createdAt,value
2018-07-12T00:01:18.072Z,14.03
2018-07-12T00:03:46.507Z,13.87
2018-07-12T00:06:15.826Z,13.40
2018-07-12T00:08:44.268Z,13.83
2018-07-12T00:11:12.721Z,12.87
2018-07-12T00:13:41.769Z,13.40
2018-07-12T00:16:10.224Z,13.83
2018-07-12T00:18:38.664Z,12.57
2018-07-12T00:21:07.123Z,12.73
2018-07-12T00:23:35.564Z,13.07
2018-07-12T00:26:04.024Z,13.10
2018-07-12T00:28:32.490Z,12.90
2018-07-12T00:31:00.934Z,12.40
2018-07-12T00:33:29.389Z,13.03
2018-07-12T00:35:57.844Z,12.07
2018-07-12T00:38:26.312Z,12.73
2018-07-12T00:40:55.015Z,12.03
2018-07-12T00:43:23.327Z,12.17
2018-07-12T00:45:52.031Z,11.77
2018-07-12T00:48:20.348Z,11.47
2018-07-12T00:50:49.054Z,10.60
2018-07-12T00:53:17.372Z,12.07
2018-07-12T00:55:45.819Z,10.97
2018-07-12T00:58:14.790Z,11.60
2018-07-12T01:00:43.270Z,12.17
2018-07-12T01:03:11.715Z,12.47
2018-07-12T01:05:40.155Z,13.03
2018-07-12T01:08:08.595Z,13.53
2018-07-12T01:10:37.042Z,14.53
2018-07-12T01:13:05.478Z,14.93
2018-07-12T01:15:33.931Z,14.27
2018-07-12T01:18:02.370Z,13.57
2018-07-12T01:20:30.809Z,13.73
2018-07-12T01:22:59.362Z,13.40
2018-07-12T01:25:27.874Z,14.33
2018-07-12T01:27:56.263Z,13.93
2018-07-12T01:30:24.705Z,13.40
2018-07-12T01:32:53.158Z,13.47
2018-07-12T01:35:21.606Z,14.03
2018-07-12T01:37:50.039Z,13.30
2018-07-12T01:40:18.493Z,14.40
2018-07-12T01:42:46.936Z,13.90
2018-07-12T01:45:16.383Z,13.40
2018-07-12T01:47:44.822Z,14.10
2018-07-12T01:50:13.265Z,13.90
2018-07-12T01:52:41.714Z,13.80
2018-07-12T01:55:10.151Z,13.77
2018-07-12T01:57:38.612Z,14.17
2018-07-12T02:00:07.049Z,14.43
2018-07-12T02:02:35.513Z,14.20
2018-07-12T02:05:03.973Z,14.00
2018-07-12T02:07:32.459Z,14.10
2018-07-12T02:10:00.916Z,14.27
2018-07-12T02:12:29.363Z,14.13
2018-07-12T02:14:57.802Z,14.13
2018-07-12T02:17:26.263Z,13.77
2018-07-12T02:19:54.691Z,13.27
2018-07-12T02:22:23.150Z,14.47
2018-07-12T02:24:51.582Z,14.03
2018-07-12T02:27:20.018Z,13.53
2018-07-12T02:29:48.463Z,12.70
2018-07-12T02:32:16.953Z,14.20
2018-07-12T02:34:46.286Z,14.30
2018-07-12T02:37:14.802Z,13.20
2018-07-12T02:39:43.238Z,13.33
2018-07-12T02:42:11.692Z,14.03
2018-07-12T02:44:40.136Z,13.90
2018-07-12T02:47:08.582Z,12.90
2018-07-12T02:49:37.018Z,13.40
2018-07-12T02:52:05.518Z,14.00
2018-07-12T02:54:33.986Z,13.23
2018-07-12T02:57:02.434Z,13.47
2018-07-12T02:59:30.874Z,13.73
2018-07-12T03:01:59.350Z,13.50
2018-07-12T03:04:27.790Z,14.27
2018-07-12T03:06:56.253Z,13.60
2018-07-12T03:09:24.702Z,13.37
2018-07-12T03:11:53.270Z,13.90
2018-07-12T03:14:21.714Z,13.87
2018-07-12T03:16:50.169Z,14.17
2018-07-12T03:19:18.627Z,14.33
2018-07-12T03:21:47.070Z,14.23
2018-07-12T03:24:15.679Z,15.30
2018-07-12T03:26:44.127Z,15.83
2018-07-12T03:29:12.557Z,15.30
2018-07-12T03:31:41.000Z,16.03
2018-07-12T03:34:09.450Z,14.63
2018-07-12T03:36:37.943Z,13.43
2018-07-12T03:39:06.392Z,14.50
2018-07-12T03:41:34.829Z,15.40
2018-07-12T03:44:03.268Z,15.37
2018-07-12T03:46:31.695Z,15.53
2018-07-12T03:49:00.134Z,15.40
2018-07-12T03:51:28.635Z,14.87
2018-07-12T03:53:57.213Z,14.97
2018-07-12T03:56:25.634Z,14.67
2018-07-12T03:58:54.076Z,15.00
2018-07-12T04:01:22.511Z,15.73
2018-07-12T04:03:50.957Z,15.63
2018-07-12T04:06:19.397Z,15.57
2018-07-12T04:08:47.895Z,15.40
2018-07-12T04:11:16.283Z,15.20
2018-07-12T04:13:44.878Z,14.97
2018-07-12T04:16:13.319Z,15.80
2018-07-12T04:18:41.758Z,13.90
2018-07-12T04:21:10.199Z,15.70
2018-07-12T04:23:38.634Z,14.17
2018-07-12T04:26:07.090Z,14.23
2018-07-12T04:28:35.544Z,14.27
2018-07-12T04:31:03.978Z,14.27
2018-07-12T04:33:32.413Z,14.27
2018-07-12T04:36:00.856Z,14.17
2018-07-12T04:38:29.304Z,14.03
2018-07-12T04:40:57.721Z,15.10
2018-07-12T04:43:26.170Z,14.73
2018-07-12T04:45:54.611Z,13.77
2018-07-12T04:48:23.054Z,14.40
2018-07-12T04:50:51.495Z,13.97
2018-07-12T04:53:19.947Z,14.63
2018-07-12T04:55:48.390Z,14.60
2018-07-12T04:58:16.896Z,15.60
2018-07-12T05:00:45.992Z,15.00
2018-07-12T05:03:14.940Z,15.00
2018-07-12T05:05:43.370Z,15.50
2018-07-12T05:08:12.218Z,15.17
2018-07-12T05:10:40.410Z,15.60
2018-07-12T05:13:08.862Z,17.03
2018-07-12T05:15:37.310Z,17.17
2018-07-12T05:18:05.760Z,17.40
2018-07-12T05:20:34.204Z,17.23
2018-07-12T05:23:02.653Z,18.63
2018-07-12T05:25:31.149Z,17.57
2018-07-12T05:27:59.581Z,17.97
2018-07-12T05:30:28.036Z,17.47
2018-07-12T05:32:56.484Z,18.13
2018-07-12T05:35:26.424Z,17.70
2018-07-12T05:37:56.359Z,17.70
2018-07-12T05:40:26.310Z,17.00
2018-07-12T05:42:56.252Z,17.77
2018-07-12T05:45:26.496Z,16.63
2018-07-12T05:47:56.486Z,17.20
2018-07-12T05:50:26.439Z,18.90
2018-07-12T05:52:56.434Z,18.00
2018-07-12T05:55:26.379Z,18.17
2018-07-12T05:57:56.333Z,18.10
2018-07-12T06:00:26.274Z,18.57
2018-07-12T06:02:56.258Z,19.30
2018-07-12T06:05:26.180Z,18.43
2018-07-12T06:07:56.135Z,19.20
2018-07-12T06:10:26.111Z,17.90
2018-07-12T06:12:56.047Z,16.57
2018-07-12T06:15:25.999Z,15.60
2018-07-12T06:17:55.973Z,15.13
2018-07-12T06:20:25.914Z,15.43
2018-07-12T06:22:55.853Z,15.63
2018-07-12T06:25:25.922Z,15.50
2018-07-12T06:27:55.902Z,15.70
2018-07-12T06:30:25.851Z,13.97
2018-07-12T06:32:55.803Z,14.27
2018-07-12T06:35:25.738Z,13.97
2018-07-12T06:37:55.721Z,12.83
2018-07-12T06:40:25.736Z,12.50
2018-07-12T06:42:55.674Z,12.40
2018-07-12T06:45:25.708Z,11.43
2018-07-12T06:47:55.636Z,10.70
2018-07-12T06:50:25.626Z,11.50
2018-07-12T06:52:55.638Z,10.43
2018-07-12T06:55:25.533Z,11.27
2018-07-12T06:57:55.483Z,9.60
2018-07-12T07:00:25.472Z,9.30
2018-07-12T07:02:55.511Z,7.40
2018-07-12T07:05:25.551Z,6.60
2018-07-12T07:07:55.500Z,6.30
2018-07-12T07:10:25.436Z,6.03
2018-07-12T07:12:55.370Z,5.67
2018-07-12T07:15:25.314Z,5.50
2018-07-12T07:17:55.238Z,4.10
2018-07-12T07:20:25.174Z,4.30
2018-07-12T07:22:55.226Z,4.60
2018-07-12T07:25:25.418Z,5.00
2018-07-12T07:27:55.430Z,8.50
2018-07-12T07:30:25.370Z,8.50
2018-07-12T07:32:55.307Z,7.80
2018-07-12T07:35:25.334Z,7.80
2018-07-12T07:37:55.413Z,7.40
2018-07-12T07:40:25.342Z,6.90
2018-07-12T07:42:55.301Z,6.83
2018-07-12T07:45:25.320Z,7.10
2018-07-12T07:47:55.284Z,6.30
2018-07-12T07:50:25.264Z,6.43
2018-07-12T07:52:55.202Z,8.47
2018-07-12T07:55:25.143Z,5.23
2018-07-12T07:57:55.071Z,4.83
2018-07-12T08:00:25.011Z,4.80
2018-07-12T08:02:54.942Z,4.60
2018-07-12T08:05:24.874Z,4.45
2018-07-12T08:07:54.819Z,4.05
2018-07-12T08:10:24.765Z,3.30
2018-07-12T08:12:54.711Z,4.62
2018-07-12T08:15:24.654Z,4.62
2018-07-12T08:17:54.576Z,4.03
2018-07-12T08:20:24.594Z,4.10
2018-07-12T08:22:54.622Z,5.28
2018-07-12T08:25:24.686Z,5.08
2018-07-12T08:28:11.747Z,4.67
2018-07-12T08:30:41.719Z,4.58
2018-07-12T08:33:11.634Z,4.00
2018-07-12T08:35:42.755Z,3.90
2018-07-12T08:38:12.670Z,3.92
2018-07-12T08:40:42.623Z,3.83
2018-07-12T08:43:12.894Z,5.20
2018-07-12T08:45:43.042Z,4.47
2018-07-12T08:48:13.674Z,3.55
2018-07-12T08:50:43.357Z,3.67
2018-07-12T08:53:14.231Z,3.25
2018-07-12T08:55:44.144Z,3.40
2018-07-12T08:58:14.269Z,4.23
2018-07-12T09:00:45.103Z,4.17
2018-07-12T09:03:15.222Z,4.07
2018-07-12T09:05:45.321Z,4.30
2018-07-12T09:08:15.590Z,3.60
2018-07-12T09:10:46.689Z,4.05
2018-07-12T09:13:17.119Z,3.90
2018-07-12T09:15:47.721Z,3.77
2018-07-12T09:18:18.522Z,3.35
2018-07-12T09:20:48.651Z,3.90
2018-07-12T09:23:18.554Z,3.08
2018-07-12T09:25:48.669Z,3.33
2018-07-12T09:28:18.594Z,4.17
2018-07-12T09:30:48.669Z,3.60
2018-07-12T09:33:18.595Z,3.92
2018-07-12T09:35:48.518Z,3.87
2018-07-12T09:38:55.749Z,4.15
2018-07-12T09:41:25.907Z,3.90
2018-07-12T09:43:55.828Z,3.77
2018-07-12T09:46:25.779Z,3.98
2018-07-12T09:48:55.733Z,5.90
2018-07-12T09:51:25.657Z,4.50
2018-07-12T09:53:55.578Z,3.90
2018-07-12T09:56:41.548Z,4.53
2018-07-12T09:59:11.076Z,3.17
2018-07-12T10:01:46.327Z,3.75
2018-07-12T10:04:16.247Z,3.08
2018-07-12T10:06:51.269Z,3.47
2018-07-12T10:09:26.630Z,3.55
2018-07-12T10:12:01.959Z,3.30
2018-07-12T10:15:35.966Z,3.72
2018-07-12T10:18:11.286Z,3.25
2018-07-12T10:20:41.255Z,3.67
2018-07-12T10:23:11.207Z,3.92
2018-07-12T10:25:41.165Z,4.33
2018-07-12T10:28:11.122Z,3.90
2018-07-12T10:30:41.102Z,4.00
2018-07-12T10:33:11.159Z,4.00
2018-07-12T10:35:41.086Z,3.67
2018-07-12T10:38:11.039Z,3.58
2018-07-12T10:40:41.370Z,3.95
2018-07-12T10:43:11.594Z,3.30
2018-07-12T10:45:41.967Z,3.75
2018-07-12T10:48:12.023Z,4.20
2018-07-12T10:50:42.046Z,4.47
2018-07-12T10:53:12.066Z,3.90
2018-07-12T10:55:42.086Z,4.03
2018-07-12T10:58:12.098Z,3.67
2018-07-12T11:00:42.070Z,3.20
2018-07-12T11:03:12.027Z,3.15
2018-07-12T11:05:41.967Z,3.47
2018-07-12T11:08:11.998Z,3.10
2018-07-12T11:10:41.921Z,3.27
2018-07-12T11:13:16.251Z,3.10
2018-07-12T11:15:47.467Z,3.47
2018-07-12T11:18:17.975Z,3.00
2018-07-12T11:20:47.994Z,3.22
2018-07-12T11:23:18.026Z,3.35
2018-07-12T11:25:47.959Z,3.30
2018-07-12T11:28:17.938Z,3.30
2018-07-12T11:30:48.868Z,3.72
2018-07-12T11:33:40.698Z,4.53
2018-07-12T11:36:10.771Z,4.25
2018-07-12T11:38:41.892Z,3.60
2018-07-12T11:41:12.125Z,3.87
2018-07-12T11:43:42.106Z,3.47
2018-07-12T11:46:13.349Z,3.60
2018-07-12T11:48:44.482Z,3.95
2018-07-12T11:51:14.442Z,4.05
2018-07-12T11:53:44.362Z,3.20
2018-07-12T11:56:14.289Z,3.80
2018-07-12T11:58:44.344Z,3.25
2018-07-12T12:01:14.891Z,3.05
2018-07-12T12:03:45.354Z,2.85
2018-07-12T12:06:15.277Z,2.58
2018-07-12T12:08:45.296Z,2.98
2018-07-12T12:11:15.215Z,2.67
2018-07-12T12:13:45.267Z,4.08
2018-07-12T12:16:15.202Z,4.10
2018-07-12T12:18:45.277Z,4.10
2018-07-12T12:21:15.303Z,4.20
2018-07-12T12:23:45.235Z,4.25
2018-07-12T12:26:15.395Z,2.98
2018-07-12T12:28:45.339Z,3.42
2018-07-12T12:31:15.284Z,4.00
2018-07-12T12:33:45.302Z,3.77
2018-07-12T12:36:15.223Z,3.62
2018-07-12T12:38:45.397Z,2.90
2018-07-12T12:41:15.330Z,3.60
2018-07-12T12:43:45.279Z,3.58
2018-07-12T12:46:15.222Z,3.52
2018-07-12T12:48:45.414Z,4.00
2018-07-12T12:51:15.335Z,3.90
2018-07-12T12:53:45.259Z,2.70
2018-07-12T12:56:15.304Z,2.80
2018-07-12T12:58:45.231Z,2.83
2018-07-12T13:01:15.629Z,2.92
2018-07-12T13:03:46.518Z,3.80
2018-07-12T13:06:17.471Z,4.10
2018-07-12T13:08:47.186Z,3.35
2018-07-12T13:11:17.078Z,3.27
2018-07-12T13:13:47.474Z,3.20
2018-07-12T13:16:18.387Z,3.40
2018-07-12T13:18:48.303Z,3.35
2018-07-12T13:21:18.282Z,3.70
2018-07-12T13:23:48.211Z,3.50
2018-07-12T13:26:18.148Z,3.33
2018-07-12T13:28:48.082Z,3.72
2018-07-12T13:31:18.015Z,3.22
2018-07-12T13:33:47.741Z,3.35
2018-07-12T13:36:18.193Z,3.67
2018-07-12T13:38:48.275Z,3.52
2018-07-12T13:41:18.391Z,3.80
2018-07-12T13:43:48.350Z,3.72
2018-07-12T13:46:18.396Z,3.37
2018-07-12T13:48:48.295Z,3.52
2018-07-12T13:51:18.231Z,3.10
2018-07-12T13:53:48.170Z,2.65
2018-07-12T13:56:18.179Z,3.30
2018-07-12T13:58:48.106Z,3.47
2018-07-12T14:01:18.077Z,4.25
2018-07-12T14:03:47.975Z,4.10
2018-07-12T14:06:18.658Z,3.70
2018-07-12T14:08:48.627Z,4.03
2018-07-12T14:11:18.562Z,4.10
2018-07-12T14:13:48.583Z,3.60
2018-07-12T14:16:18.629Z,3.10
2018-07-12T14:18:48.592Z,3.50
2018-07-12T14:21:18.534Z,3.85
2018-07-12T14:23:48.523Z,4.25
2018-07-12T14:26:18.471Z,3.40
2018-07-12T14:28:48.222Z,3.30
2018-07-12T14:31:17.787Z,3.55
2018-07-12T14:33:48.612Z,3.25
2018-07-12T14:36:18.571Z,2.98
2018-07-12T14:38:48.482Z,2.98
2018-07-12T14:41:18.185Z,3.17
2018-07-12T14:43:47.987Z,2.92
2018-07-12T14:46:18.060Z,2.70
2018-07-12T14:48:48.068Z,2.72
2018-07-12T14:51:18.014Z,2.70
2018-07-12T14:53:48.136Z,3.30
2018-07-12T14:56:18.095Z,2.55
2018-07-12T14:58:48.062Z,2.83
2018-07-12T15:01:18.077Z,3.40
2018-07-12T15:03:48.118Z,2.92
2018-07-12T15:06:18.106Z,3.92
2018-07-12T15:08:48.061Z,3.30
2018-07-12T15:11:18.039Z,2.90
2018-07-12T15:13:48.265Z,2.90
2018-07-12T15:16:18.282Z,2.70
2018-07-12T15:18:48.214Z,4.00
2018-07-12T15:21:18.251Z,2.55
2018-07-12T15:23:48.327Z,2.80
2018-07-12T15:26:18.223Z,3.20
2018-07-12T15:28:48.872Z,2.65
2018-07-12T15:31:18.820Z,2.75
2018-07-12T15:33:48.746Z,2.60
2018-07-12T15:36:18.770Z,2.42
2018-07-12T15:38:48.656Z,2.60
2018-07-12T15:41:18.621Z,2.80
2018-07-12T15:43:48.676Z,2.65
2018-07-12T15:46:18.635Z,2.60
2018-07-12T15:48:48.572Z,2.50
2018-07-12T15:51:18.507Z,3.00
2018-07-12T15:53:48.278Z,2.40
2018-07-12T15:56:18.087Z,2.98
2018-07-12T15:58:48.055Z,2.70
2018-07-12T16:01:18.102Z,2.70
2018-07-12T16:03:48.100Z,2.62
2018-07-12T16:06:18.066Z,3.15
2018-07-12T16:08:48.215Z,2.37
2018-07-12T16:11:18.163Z,2.70
2018-07-12T16:13:48.098Z,2.90
2018-07-12T16:16:18.042Z,2.80
2018-07-12T16:18:49.030Z,2.85
2018-07-12T16:21:18.943Z,2.65
2018-07-12T16:23:48.854Z,3.92
2018-07-12T16:26:18.935Z,2.95
2018-07-12T16:28:48.878Z,2.60
2018-07-12T16:31:18.807Z,2.62
2018-07-12T16:33:48.710Z,2.95
2018-07-12T16:36:18.659Z,2.80
2018-07-12T16:38:48.586Z,2.67
2018-07-12T16:41:18.525Z,2.77
2018-07-12T16:43:48.443Z,2.67
2018-07-12T16:46:18.378Z,2.62
2018-07-12T16:48:48.887Z,2.45
2018-07-12T16:51:18.823Z,2.62
2018-07-12T16:53:48.771Z,2.42
2018-07-12T16:56:18.699Z,2.47
2018-07-12T16:58:49.102Z,2.42
2018-07-12T17:01:19.030Z,2.65
2018-07-12T17:03:49.002Z,2.50
2018-07-12T17:06:18.935Z,2.80
2018-07-12T17:08:48.955Z,2.42
2018-07-12T17:11:18.894Z,2.58
2018-07-12T17:13:48.778Z,2.40
2018-07-12T17:16:18.727Z,2.45
2018-07-12T17:18:48.658Z,2.60
2018-07-12T17:21:18.610Z,2.65
2018-07-12T17:23:48.534Z,2.42
2018-07-12T17:26:18.467Z,2.98
2018-07-12T17:28:48.442Z,2.67
2018-07-12T17:31:18.368Z,2.67
2018-07-12T17:33:48.291Z,3.30
2018-07-12T17:36:18.226Z,2.40
2018-07-12T17:38:48.159Z,37.85
2018-07-12T17:41:18.595Z,3.90
2018-07-12T17:43:48.519Z,3.00
2018-07-12T17:46:18.460Z,4.42
2018-07-12T17:48:48.382Z,2.70
2018-07-12T17:51:18.330Z,2.58
2018-07-12T17:53:48.291Z,2.80
2018-07-12T17:56:18.287Z,2.60
2018-07-12T17:58:48.279Z,2.90
2018-07-12T18:01:18.211Z,2.55
2018-07-12T18:03:48.147Z,2.80
2018-07-12T18:06:18.475Z,2.77
2018-07-12T18:08:48.404Z,2.37
2018-07-12T18:11:18.316Z,2.67
2018-07-12T18:13:48.323Z,2.60
2018-07-12T18:16:18.251Z,2.60
2018-07-12T18:18:48.311Z,2.77
2018-07-12T18:21:18.214Z,2.58
2018-07-12T18:23:48.163Z,2.47
2018-07-12T18:26:18.889Z,2.60
2018-07-12T18:28:48.902Z,2.87
2018-07-12T18:31:18.823Z,68.33
2018-07-12T18:33:48.759Z,3.27
2018-07-12T18:36:18.675Z,3.10
2018-07-12T18:38:48.619Z,2.55
2018-07-12T18:41:18.539Z,2.80
2018-07-12T18:43:48.484Z,2.72
2018-07-12T18:46:18.469Z,2.45
2018-07-12T18:48:48.394Z,2.60
2018-07-12T18:51:18.334Z,2.70
2018-07-12T18:53:48.272Z,2.37
2018-07-12T18:56:18.195Z,2.50
2018-07-12T18:58:48.338Z,2.50
2018-07-12T19:01:18.258Z,2.50
2018-07-12T19:03:47.974Z,2.47
2018-07-12T19:06:18.418Z,2.30
2018-07-12T19:08:48.425Z,2.20
2018-07-12T19:11:18.298Z,2.50
2018-07-12T19:13:48.820Z,2.50
2018-07-12T19:16:18.983Z,2.40
2018-07-12T19:18:49.003Z,2.43
2018-07-12T19:21:18.919Z,2.50
2018-07-12T19:23:48.843Z,2.37
2018-07-12T19:26:18.795Z,2.50
2018-07-12T19:28:48.678Z,2.70
2018-07-12T19:31:18.615Z,2.50
2018-07-12T19:33:48.567Z,2.70
2018-07-12T19:36:18.539Z,53.47
2018-07-12T19:38:48.496Z,9.77
2018-07-12T19:41:18.192Z,3.40
2018-07-12T19:43:48.626Z,3.57
2018-07-12T19:46:18.558Z,2.80
2018-07-12T19:48:48.587Z,3.10
2018-07-12T19:51:18.598Z,2.70
2018-07-12T19:53:48.560Z,2.73
2018-07-12T19:56:18.480Z,2.70
2018-07-12T19:58:48.506Z,2.60
2018-07-12T20:01:18.434Z,2.60
2018-07-12T20:03:48.504Z,2.70
2018-07-12T20:06:18.347Z,2.40
2018-07-12T20:08:48.374Z,2.57
2018-07-12T20:11:18.299Z,2.60
2018-07-12T20:13:49.111Z,2.40
2018-07-12T20:16:19.041Z,2.67
2018-07-12T20:18:48.961Z,2.60
2018-07-12T20:21:19.060Z,2.50
2018-07-12T20:23:49.213Z,2.80
2018-07-12T20:26:19.444Z,2.70
2018-07-12T20:28:49.468Z,2.57
2018-07-12T20:31:19.375Z,2.60
2018-07-12T20:33:49.370Z,2.70
2018-07-12T20:36:19.475Z,2.40
2018-07-12T20:38:49.501Z,2.63
2018-07-12T20:41:19.451Z,2.67
2018-07-12T20:43:49.386Z,2.83
2018-07-12T20:46:19.338Z,2.73
2018-07-12T20:48:49.308Z,2.87
2018-07-12T20:51:19.246Z,2.90
2018-07-12T20:53:49.172Z,2.90
2018-07-12T20:56:19.098Z,3.20
2018-07-12T20:58:49.031Z,36.23
2018-07-12T21:01:18.959Z,2.67
2018-07-12T21:03:48.892Z,4.90
2018-07-12T21:06:18.865Z,3.20
2018-07-12T21:08:48.813Z,2.77
2018-07-12T21:11:18.799Z,2.67
2018-07-12T21:13:48.714Z,2.60
2018-07-12T21:16:18.630Z,2.73
2018-07-12T21:18:48.666Z,2.67
2018-07-12T21:21:18.595Z,2.80
2018-07-12T21:23:48.533Z,2.70
2018-07-12T21:26:18.207Z,2.90
2018-07-12T21:28:48.390Z,3.00
2018-07-12T21:31:18.348Z,3.27
2018-07-12T21:33:49.101Z,3.53
2018-07-12T21:36:18.861Z,3.10
2018-07-12T21:38:48.679Z,3.57
2018-07-12T21:41:18.619Z,3.70
2018-07-12T21:43:48.597Z,4.03
2018-07-12T21:46:18.625Z,4.13
2018-07-12T21:48:48.583Z,4.03
2018-07-12T21:51:18.541Z,4.40
2018-07-12T21:53:48.487Z,4.30
2018-07-12T21:56:18.418Z,4.20
2018-07-12T21:58:48.634Z,4.13
2018-07-12T22:01:18.634Z,4.20
2018-07-12T22:03:48.571Z,4.57
2018-07-12T22:06:32.271Z,4.33
2018-07-12T22:09:02.196Z,4.50
2018-07-12T22:11:32.114Z,4.70
2018-07-12T22:14:02.101Z,5.00
2018-07-12T22:16:32.115Z,4.80
2018-07-12T22:19:02.167Z,4.90
2018-07-12T22:21:32.110Z,4.77
2018-07-12T22:24:01.798Z,4.77
2018-07-12T22:26:31.605Z,4.90
2018-07-12T22:29:01.806Z,5.27
2018-07-12T22:31:31.867Z,5.10
2018-07-12T22:34:01.812Z,4.77
2018-07-12T22:36:31.746Z,5.30
2018-07-12T22:39:01.979Z,5.23
2018-07-12T22:41:31.918Z,5.60
2018-07-12T22:44:01.879Z,5.67
2018-07-12T22:46:31.815Z,5.83
2018-07-12T22:49:02.216Z,5.30
2018-07-12T22:51:31.999Z,5.37
2018-07-12T22:54:01.922Z,5.37
2018-07-12T22:56:31.856Z,5.40
2018-07-12T22:59:01.879Z,5.53
2018-07-12T23:01:31.799Z,5.60
2018-07-12T23:04:01.807Z,5.37
2018-07-12T23:06:31.757Z,5.33
2018-07-12T23:09:01.939Z,5.63
2018-07-12T23:11:31.872Z,5.30
2018-07-12T23:14:02.695Z,5.40
2018-07-12T23:16:32.623Z,5.87
2018-07-12T23:19:02.782Z,5.40
2018-07-12T23:21:32.719Z,5.40
2018-07-12T23:24:02.857Z,5.43
2018-07-12T23:26:32.879Z,5.07
2018-07-12T23:29:03.014Z,5.23
2018-07-12T23:31:32.987Z,5.50
2018-07-12T23:34:02.923Z,5.50
2018-07-12T23:36:32.859Z,5.70
2018-07-12T23:39:03.076Z,6.00
2018-07-12T23:41:33.019Z,5.80
2018-07-12T23:44:03.031Z,6.07
2018-07-12T23:46:32.978Z,6.40
2018-07-12T23:49:02.972Z,6.00
2018-07-12T23:51:32.932Z,6.00
2018-07-12T23:54:02.858Z,6.20
2018-07-12T23:56:32.808Z,6.00
2018-07-12T23:59:02.903Z,5.97
